Emerald Coast — WDC9127 — position and weather

sailwx.info

Track history (hours):
 
Tides and Currents Weather Stations Pressure Air Temp Water Temp Dewpoint Dewpoint Depression Visibility Wind Speed Wind Dir Waves Ship Positions

Emerald Coast

Owner: Dann Marine Towing, LC, Chesapeake City, MD. More information available from US FCC via Universal Licensing System and Coast Guard Vessel Documentation Center.

Last reported at 2017-Sep-19 22:30 UTC. Time now 2017-Sep-19 22:27 UTC.
Position N 40°39' W 074°09'.

; draft 3 m.

Type: Tug. MMSI: 367097920.

Date/timePositionNaut miles runAvg speedWind from/ knotsBaromVisibWave heightAir tempDewpointWater temp
2017-Sep-19 22:30N 40°39' W 074°09'2 3.8
2017-Sep-19 22:00N 40°39' W 074°06'2 4.4
2017-Sep-19 21:31N 40°39' W 074°03'2 4.5
2017-Sep-19 21:00N 40°40' W 074°01'0 0.5
2017-Sep-19 20:29N 40°40' W 074°00'0 0.0
2017-Sep-19 19:59N 40°40' W 074°00'1 1.7
2017-Sep-19 19:30N 40°40' W 074°01'4 7.3
2017-Sep-19 19:01N 40°39' W 074°06'0 0.3
2017-Sep-19 18:28N 40°39' W 074°06'1 2.4
2017-Sep-19 18:00N 40°39' W 074°04'4 6.9
2017-Sep-19 17:30N 40°40' W 074°00'0 0.0
2017-Sep-19 17:00N 40°40' W 074°00'0 0.0
2017-Sep-19 16:30N 40°40' W 074°00'0 0.0
2017-Sep-19 16:00N 40°40' W 074°00'0 0.0
2017-Sep-19 15:30N 40°40' W 074°00'0 0.0
2017-Sep-19 14:57N 40°40' W 074°00'0 0.0
2017-Sep-19 14:30N 40°40' W 074°00'0 0.0
2017-Sep-19 13:57N 40°40' W 074°00'0 0.0
2017-Sep-19 13:30N 40°40' W 074°00'0 0.0
2017-Sep-19 13:00N 40°40' W 074°00'0 0.0
2017-Sep-19 12:30N 40°40' W 074°00'0 0.0
2017-Sep-19 12:00N 40°40' W 074°00'0 0.0
2017-Sep-19 11:30N 40°40' W 074°00'0 0.0
2017-Sep-19 11:00N 40°40' W 074°00'0 0.0
2017-Sep-19 10:30N 40°40' W 074°00'0 0.6
2017-Sep-19 09:59N 40°40' W 074°00'1 1.8
2017-Sep-19 09:30N 40°40' W 074°01'1 2.3
2017-Sep-19 09:00N 40°39' W 074°02'4 7.2
2017-Sep-19 08:30N 40°39' W 074°07'3 5.3
2017-Sep-19 08:00N 40°41' W 074°09'1 1.0
2017-Sep-19 07:23N 40°41' W 074°10'0 0.0
2017-Sep-19 06:59N 40°41' W 074°10'0 0.0
2017-Sep-19 06:29N 40°41' W 074°10'0 0.0
2017-Sep-19 05:59N 40°41' W 074°10'0 0.2
2017-Sep-19 05:30N 40°41' W 074°09'3 5.8
2017-Sep-19 05:01N 40°39' W 074°08'1 2.7
2017-Sep-19 04:30N 40°39' W 074°06'0 0.0
2017-Sep-19 04:00N 40°39' W 074°06'1 1.4
2017-Sep-19 03:31N 40°39' W 074°05'2 0.3
2017-Sep-18 21:10N 40°39' W 074°07'210.2
2017-Sep-18 21:00N 40°39' W 074°05'1 1.0
2017-Sep-18 20:31N 40°39' W 074°06'2 4.7
2017-Sep-18 20:01N 40°39' W 074°09'3 5.4
2017-Sep-18 19:31N 40°38' W 074°12'0 0.2
2017-Sep-18 19:00N 40°38' W 074°12'0 0.0
2017-Sep-18 18:24N 40°38' W 074°12'0 0.0
2017-Sep-18 17:09N 40°38' W 074°12'0 0.0
2017-Sep-18 16:54N 40°38' W 074°12'2 5.4
2017-Sep-18 16:30N 40°39' W 074°09'2 1.2
2017-Sep-18 15:02N 40°39' W 074°07'0 5.8
2017-Sep-18 15:00N 40°39' W 074°07'2 3.4
2017-Sep-18 14:30N 40°39' W 074°05'2 3.6
2017-Sep-18 13:58N 40°40' W 074°03'1 2.6
2017-Sep-18 13:30N 40°40' W 074°01'1 2.1
2017-Sep-18 12:59N 40°40' W 074°00'0 0.0
2017-Sep-18 12:29N 40°40' W 074°00'0 0.0
2017-Sep-18 11:59N 40°40' W 074°00'0 0.0
2017-Sep-18 11:29N 40°40' W 074°00'0 0.0
2017-Sep-18 10:59N 40°40' W 074°00'0 0.0
2017-Sep-18 10:29N 40°40' W 074°00'0 0.0
2017-Sep-18 09:59N 40°40' W 074°00'0 0.0
2017-Sep-18 09:29N 40°40' W 074°00'0 0.0
2017-Sep-18 08:59N 40°40' W 074°00'0 0.0
2017-Sep-18 08:29N 40°40' W 074°00'0 0.0
2017-Sep-18 07:59N 40°40' W 074°00'0 0.0
2017-Sep-18 07:29N 40°40' W 074°00'0 0.0
2017-Sep-18 06:59N 40°40' W 074°00'0 0.0
2017-Sep-18 06:29N 40°40' W 074°00'0 0.0
2017-Sep-18 05:59N 40°40' W 074°00'0 0.0
2017-Sep-18 05:29N 40°40' W 074°00'0 0.0
2017-Sep-18 04:59N 40°40' W 074°00'0 0.0
2017-Sep-18 04:29N 40°40' W 074°00'0 0.0
2017-Sep-18 03:59N 40°40' W 074°00'0 0.0
2017-Sep-18 03:29N 40°40' W 074°00'0 0.0
2017-Sep-18 02:59N 40°40' W 074°00'0 0.0
2017-Sep-18 02:29N 40°40' W 074°00'0 0.0
2017-Sep-18 01:59N 40°40' W 074°00'0 0.0
2017-Sep-18 01:29N 40°40' W 074°00'0 0.0
2017-Sep-18 00:59N 40°40' W 074°00'0 0.0
2017-Sep-18 00:29N 40°40' W 074°00'0 0.0
2017-Sep-17 23:59N 40°40' W 074°00'0 0.0
2017-Sep-17 23:29N 40°40' W 074°00'0 0.0
2017-Sep-17 22:59N 40°40' W 074°00'0 0.0
2017-Sep-17 22:29N 40°40' W 074°00'0 0.0
2017-Sep-17 21:59N 40°40' W 074°00'0 0.0
2017-Sep-17 21:29N 40°40' W 074°00'0 0.0
2017-Sep-17 20:59N 40°40' W 074°00'0 0.0
2017-Sep-17 20:29N 40°40' W 074°00'0 0.0
2017-Sep-17 19:59N 40°40' W 074°00'0 0.0
2017-Sep-17 19:29N 40°40' W 074°00'0 0.0
2017-Sep-17 18:59N 40°40' W 074°00'0 0.0
2017-Sep-17 18:29N 40°40' W 074°00'0 0.0
2017-Sep-17 17:59N 40°40' W 074°00'0 0.0
2017-Sep-17 17:29N 40°40' W 074°00'0 0.0
2017-Sep-17 16:59N 40°40' W 074°00'0 0.0
2017-Sep-17 16:29N 40°40' W 074°00'0 0.0
2017-Sep-17 15:59N 40°40' W 074°00'0 0.0
2017-Sep-17 15:26N 40°40' W 074°00'0 0.0
2017-Sep-17 14:59N 40°40' W 074°00'0 0.0
2017-Sep-17 14:29N 40°40' W 074°00'0 0.0
2017-Sep-17 13:59N 40°40' W 074°00'0 0.0
2017-Sep-17 13:29N 40°40' W 074°00'0 0.0
2017-Sep-17 12:59N 40°40' W 074°00'0 0.0
2017-Sep-17 12:29N 40°40' W 074°00'0 0.0
2017-Sep-17 11:59N 40°40' W 074°00'0 0.0
2017-Sep-17 11:29N 40°40' W 074°00'0 0.0
2017-Sep-17 10:59N 40°40' W 074°00'0 0.0
2017-Sep-17 10:29N 40°40' W 074°00'0 0.0
2017-Sep-17 09:59N 40°40' W 074°00'0 0.0
2017-Sep-17 09:29N 40°40' W 074°00'0 0.0
2017-Sep-17 08:59N 40°40' W 074°00'0 0.0
2017-Sep-17 08:29N 40°40' W 074°00'0 0.0
2017-Sep-17 07:59N 40°40' W 074°00'0 0.0
2017-Sep-17 07:29N 40°40' W 074°00'0 0.0
2017-Sep-17 06:59N 40°40' W 074°00'0 0.0
2017-Sep-17 06:29N 40°40' W 074°00'0 0.0
2017-Sep-17 05:59N 40°40' W 074°00'0 0.0
2017-Sep-17 05:29N 40°40' W 074°00'3 6.4
2017-Sep-17 05:00N 40°39' W 074°04'2 4.2
2017-Sep-17 04:30N 40°39' W 074°07'0 0.9
2017-Sep-17 03:59N 40°39' W 074°07'0 0.0
2017-Sep-17 03:26N 40°39' W 074°07'0 0.0
2017-Sep-17 02:56N 40°39' W 074°07'0 0.0
2017-Sep-17 02:29N 40°39' W 074°07'0 0.0
2017-Sep-17 01:20N 40°39' W 074°07'0 0.2
2017-Sep-16 23:56N 40°39' W 074°07'4 8.5
2017-Sep-16 23:30N 40°38' W 074°12'5 0.7
2017-Sep-16 15:38N 40°33' W 074°15'4 1.7
2017-Sep-16 13:35N 40°36' W 074°12'1 6.7
2017-Sep-16 13:30N 40°36' W 074°12'3 6.2
2017-Sep-16 13:00N 40°39' W 074°10'3 6.3
2017-Sep-16 12:30N 40°39' W 074°06'1 1.5
2017-Sep-16 12:00N 40°39' W 074°05'3 5.3
2017-Sep-16 11:30N 40°41' W 074°02'1 2.9
2017-Sep-16 11:00N 40°41' W 074°00'0 0.0
2017-Sep-16 10:30N 40°41' W 074°00'1 2.5
2017-Sep-16 10:00N 40°41' W 074°02'4 6.7
2017-Sep-16 09:28N 40°39' W 074°06'0 0.1
2017-Sep-16 09:00N 40°39' W 074°06'1 1.3
2017-Sep-16 08:07N 40°38' W 074°07'0 0.0
2017-Sep-16 07:58N 40°38' W 074°07'0 0.0
2017-Sep-16 04:41N 40°38' W 074°07'2 8.4
2017-Sep-16 04:30N 40°39' W 074°05'2 4.3
2017-Sep-16 04:00N 40°40' W 074°03'2 4.5
2017-Sep-16 03:28N 40°38' W 074°04'0 0.0
2017-Sep-16 02:58N 40°38' W 074°04'0 0.0
2017-Sep-16 02:25N 40°38' W 074°04'0 0.0
2017-Sep-16 01:58N 40°38' W 074°04'0 0.0
2017-Sep-16 01:28N 40°38' W 074°04'1 1.1
2017-Sep-16 01:00N 40°38' W 074°04'2 3.3
2017-Sep-16 00:30N 40°40' W 074°04'0 0.0
2017-Sep-16 00:00N 40°40' W 074°04'0 0.0
2017-Sep-15 23:30N 40°40' W 074°04'0 0.0
2017-Sep-15 23:00N 40°40' W 074°04'0 0.0
2017-Sep-15 22:30N 40°40' W 074°04'0 0.0
2017-Sep-15 22:00N 40°40' W 074°04'1 3.0
2017-Sep-15 21:30N 40°39' W 074°03'3 5.1
2017-Sep-15 21:00N 40°39' W 074°06'4 8.2
2017-Sep-15 20:29N 40°38' W 074°12'0 0.0
2017-Sep-15 19:59N 40°38' W 074°12'0 0.0
2017-Sep-15 19:29N 40°38' W 074°12'0 0.0
2017-Sep-15 18:56N 40°38' W 074°12'1 2.6
2017-Sep-15 18:30N 40°39' W 074°10'5 9.5
2017-Sep-15 18:00N 40°39' W 074°04'3 5.8
2017-Sep-15 17:30N 40°40' W 074°00'1 2.0
2017-Sep-15 16:58N 40°41' W 074°01'1 2.4
2017-Sep-15 16:30N 40°40' W 074°00'0 0.0
2017-Sep-15 16:00N 40°40' W 074°00'0 0.0
2017-Sep-15 15:30N 40°40' W 074°00'0 0.2
2017-Sep-15 14:59N 40°40' W 074°00'0 0.0
2017-Sep-15 14:29N 40°40' W 074°00'0 0.0
2017-Sep-15 13:59N 40°40' W 074°00'0 0.2
2017-Sep-15 13:28N 40°40' W 074°00'0 0.0
2017-Sep-15 12:55N 40°40' W 074°00'0 0.0
2017-Sep-15 12:28N 40°40' W 074°00'0 0.0
2017-Sep-15 11:58N 40°40' W 074°00'0 0.0
2017-Sep-15 11:28N 40°40' W 074°00'1 2.4
2017-Sep-15 11:01N 40°41' W 074°01'0 0.3
2017-Sep-15 10:30N 40°41' W 074°01'2 4.2
2017-Sep-15 10:00N 40°39' W 074°02'1 1.5
2017-Sep-15 09:28N 40°38' W 074°03'0 0.4
2017-Sep-15 08:58N 40°39' W 074°03'1 2.6
2017-Sep-15 08:30N 40°39' W 074°04'2 3.5
2017-Sep-15 08:00N 40°39' W 074°06'1 1.4
2017-Sep-15 07:29N 40°38' W 074°07'0 0.0
2017-Sep-15 06:44N 40°38' W 074°07'0 0.0
2017-Sep-15 06:20N 40°38' W 074°07'0 0.0
2017-Sep-15 05:53N 40°38' W 074°07'0 0.0
2017-Sep-15 04:53N 40°38' W 074°07'0 0.0
2017-Sep-15 04:29N 40°38' W 074°07'0 0.0
2017-Sep-15 03:56N 40°38' W 074°07'0 0.0
2017-Sep-15 03:26N 40°38' W 074°07'1 1.6
2017-Sep-15 02:59N 40°39' W 074°06'0 0.8
2017-Sep-15 02:25N 40°39' W 074°06'2 4.6
2017-Sep-15 02:01N 40°40' W 074°04'3 6.1
2017-Sep-15 01:30N 40°41' W 074°00'1 2.9
2017-Sep-15 01:00N 40°40' W 074°01'1 1.7
2017-Sep-15 00:28N 40°40' W 074°00'0 0.0
2017-Sep-14 23:58N 40°40' W 074°00'0 0.0
2017-Sep-14 23:28N 40°40' W 074°00'0 0.0
2017-Sep-14 22:58N 40°40' W 074°00'0 0.0
2017-Sep-14 22:28N 40°40' W 074°00'0 0.0
2017-Sep-14 21:58N 40°40' W 074°00'0 0.0
2017-Sep-14 21:28N 40°40' W 074°00'0 0.0
2017-Sep-14 20:58N 40°40' W 074°00'0 0.0
2017-Sep-14 20:28N 40°40' W 074°00'0 0.0
2017-Sep-14 19:58N 40°40' W 074°00'0 0.0
2017-Sep-14 19:28N 40°40' W 074°00'0 0.0
2017-Sep-14 18:58N 40°40' W 074°00'0 0.0
2017-Sep-14 18:28N 40°40' W 074°00'0 0.0
2017-Sep-14 17:58N 40°40' W 074°00'0 0.0
2017-Sep-14 17:25N 40°40' W 074°00'0 0.0
2017-Sep-14 16:58N 40°40' W 074°00'0 0.0
2017-Sep-14 16:28N 40°40' W 074°00'0 0.0
2017-Sep-14 15:58N 40°40' W 074°00'0 0.0
2017-Sep-14 15:28N 40°40' W 074°00'0 0.0
2017-Sep-14 14:55N 40°40' W 074°00'0 0.0
2017-Sep-14 14:28N 40°40' W 074°00'0 0.0
2017-Sep-14 13:58N 40°40' W 074°00'1 1.1
2017-Sep-14 13:30N 40°40' W 074°01'4 8.2
2017-Sep-14 13:00N 40°39' W 074°06'3 5.8
2017-Sep-14 12:30N 40°41' W 074°09'1 1.4
2017-Sep-14 12:00N 40°41' W 074°09'1 1.3
2017-Sep-14 11:30N 40°41' W 074°09'2 3.3
2017-Sep-14 11:00N 40°39' W 074°09'2 3.6
2017-Sep-14 10:30N 40°39' W 074°07'2 5.0
2017-Sep-14 10:00N 40°40' W 074°03'0 0.4
2017-Sep-14 09:31N 40°40' W 074°04'3 3.1
2017-Sep-14 08:34N 40°38' W 074°07'0 0.0
2017-Sep-14 08:22N 40°38' W 074°07'0 0.0
2017-Sep-14 07:55N 40°38' W 074°07'0 0.0
2017-Sep-14 06:46N 40°38' W 074°07'0 0.0
2017-Sep-14 06:28N 40°38' W 074°07'0 0.0
2017-Sep-14 04:40N 40°38' W 074°07'0 0.0
2017-Sep-14 04:28N 40°38' W 074°07'0 0.0
2017-Sep-14 03:58N 40°38' W 074°07'0 0.0
2017-Sep-14 03:22N 40°38' W 074°07'0 0.0
2017-Sep-14 02:58N 40°38' W 074°07'0 0.0
2017-Sep-14 02:22N 40°38' W 074°07'0 0.0
2017-Sep-14 01:58N 40°38' W 074°07'0 0.0
2017-Sep-14 01:28N 40°38' W 074°07'0 0.0
2017-Sep-14 00:52N 40°38' W 074°07'0 0.0
2017-Sep-14 00:28N 40°38' W 074°07'1 3.0
2017-Sep-13 23:58N 40°39' W 074°05'1 2.4
2017-Sep-13 23:28N 40°40' W 074°04'0 0.0
2017-Sep-13 22:58N 40°40' W 074°04'1 2.4
2017-Sep-13 22:30N 40°40' W 074°03'3 5.3
2017-Sep-13 21:59N 40°39' W 074°06'1 1.7
2017-Sep-13 21:28N 40°39' W 074°07'0 0.0
2017-Sep-13 20:34N 40°39' W 074°07'0 0.0
2017-Sep-13 20:19N 40°38' W 074°07'0 0.0
2017-Sep-13 19:46N 40°39' W 074°07'0 0.0
2017-Sep-13 19:28N 40°39' W 074°07'0 0.0
2017-Sep-13 18:16N 40°38' W 074°07'0 0.0
2017-Sep-13 17:52N 40°39' W 074°07'1 1.5
2017-Sep-13 17:30N 40°39' W 074°07'1 1.8
2017-Sep-13 17:00N 40°39' W 074°08'1 2.6
2017-Sep-13 16:30N 40°40' W 074°09'1 2.2
2017-Sep-13 15:58N 40°41' W 074°09'1 1.5
2017-Sep-13 15:30N 40°40' W 074°08'2 3.5
2017-Sep-13 15:00N 40°39' W 074°07'3 6.2
2017-Sep-13 14:30N 40°39' W 074°03'2 4.5
2017-Sep-13 13:59N 40°40' W 074°00'1 1.4
2017-Sep-13 13:30N 40°40' W 074°01'3 6.7
2017-Sep-13 13:00N 40°39' W 074°06'3 5.1
2017-Sep-13 12:29N 40°40' W 074°09'0 0.5
2017-Sep-13 12:00N 40°40' W 074°09'0 0.9
2017-Sep-13 11:30N 40°40' W 074°08'0 0.6
2017-Sep-13 11:00N 40°40' W 074°08'1 1.9
2017-Sep-13 10:30N 40°41' W 074°09'0 0.3
2017-Sep-13 10:00N 40°41' W 074°09'0 0.0
2017-Sep-13 09:21N 40°41' W 074°09'0 0.0
2017-Sep-13 09:00N 40°41' W 074°09'0 0.0
2017-Sep-13 08:27N 40°41' W 074°09'0 0.0
2017-Sep-13 08:00N 40°41' W 074°09'0 0.0
2017-Sep-13 07:30N 40°41' W 074°09'0 0.0
2017-Sep-13 07:00N 40°41' W 074°09'0 0.0
2017-Sep-13 06:30N 40°41' W 074°09'0 0.0
2017-Sep-13 06:00N 40°41' W 074°09'0 0.0
2017-Sep-13 05:30N 40°41' W 074°09'0 0.0
2017-Sep-13 05:00N 40°41' W 074°09'0 0.0
2017-Sep-13 04:30N 40°41' W 074°09'0 0.0
2017-Sep-13 04:00N 40°41' W 074°09'0 0.0
2017-Sep-13 03:30N 40°41' W 074°09'0 0.0
2017-Sep-13 03:00N 40°41' W 074°09'0 0.0
2017-Sep-13 02:30N 40°41' W 074°09'0 0.1
2017-Sep-13 02:00N 40°41' W 074°09'2 4.1
2017-Sep-13 01:30N 40°39' W 074°09'2 3.3
2017-Sep-13 00:58N 40°39' W 074°06'1 0.4
2017-Sep-12 23:16N 40°38' W 074°07'0 0.0
2017-Sep-12 22:58N 40°38' W 074°07'0 0.0
2017-Sep-12 22:28N 40°38' W 074°07'0 0.0
2017-Sep-12 21:55N 40°38' W 074°07'1 3.1
2017-Sep-12 21:30N 40°39' W 074°06'1 2.9
2017-Sep-12 20:59N 40°40' W 074°05'1 1.1
2017-Sep-12 20:29N 40°40' W 074°04'1 2.2
2017-Sep-12 20:00N 40°39' W 074°05'1 1.4
2017-Sep-12 19:19N 40°39' W 074°06'2 6.7
2017-Sep-12 19:00N 40°39' W 074°03'3 5.3
2017-Sep-12 18:30N 40°40' W 074°00'0 0.0
2017-Sep-12 18:00N 40°40' W 074°00'0 0.3
2017-Sep-12 17:28N 40°40' W 074°00'0 0.0
2017-Sep-12 16:58N 40°40' W 074°00'0 0.0
2017-Sep-12 16:28N 40°40' W 074°00'0 0.0
2017-Sep-12 15:58N 40°40' W 074°00'0 0.0
2017-Sep-12 15:28N 40°40' W 074°00'0 0.3
2017-Sep-12 14:59N 40°40' W 074°00'0 0.0
2017-Sep-12 14:29N 40°40' W 074°00'0 0.0
2017-Sep-12 13:59N 40°40' W 074°00'0 0.0
2017-Sep-12 13:29N 40°40' W 074°00'0 0.0
2017-Sep-12 12:59N 40°40' W 074°00'0 0.0
2017-Sep-12 12:29N 40°40' W 074°00'0 0.0
2017-Sep-12 11:59N 40°40' W 074°00'0 0.0
2017-Sep-12 11:29N 40°40' W 074°00'0 0.0
2017-Sep-12 10:59N 40°40' W 074°00'0 0.0
2017-Sep-12 10:29N 40°40' W 074°00'0 0.0
2017-Sep-12 09:59N 40°40' W 074°00'0 0.0
2017-Sep-12 09:29N 40°40' W 074°00'0 0.0
2017-Sep-12 08:59N 40°40' W 074°00'0 0.0
2017-Sep-12 08:29N 40°40' W 074°00'0 0.0
2017-Sep-12 07:59N 40°40' W 074°00'0 0.0
2017-Sep-12 07:29N 40°40' W 074°00'0 0.0
2017-Sep-12 06:59N 40°40' W 074°00'0 0.0
2017-Sep-12 06:29N 40°40' W 074°00'0 0.0
2017-Sep-12 05:59N 40°40' W 074°00'0 0.0
2017-Sep-12 05:29N 40°40' W 074°00'0 0.0
2017-Sep-12 04:59N 40°40' W 074°00'0 0.0
2017-Sep-12 04:29N 40°40' W 074°00'0 0.0
2017-Sep-12 03:59N 40°40' W 074°00'0 0.0
2017-Sep-12 03:29N 40°40' W 074°00'0 0.0
2017-Sep-12 02:59N 40°40' W 074°00'0 0.0
2017-Sep-12 02:26N 40°40' W 074°00'0 0.0
2017-Sep-12 01:59N 40°40' W 074°00'0 0.0
2017-Sep-12 01:29N 40°40' W 074°00'0 0.0
2017-Sep-12 00:59N 40°40' W 074°00'0 0.0
2017-Sep-12 00:29N 40°40' W 074°00'0 0.0
2017-Sep-11 23:59N 40°40' W 074°00'0 0.0
2017-Sep-11 23:29N 40°40' W 074°00'0 0.0
2017-Sep-11 22:59N 40°40' W 074°00'0 0.0
2017-Sep-11 22:29N 40°40' W 074°00'0 0.0
2017-Sep-11 21:59N 40°40' W 074°00'0 0.0
2017-Sep-11 21:29N 40°40' W 074°00'0 0.0
2017-Sep-11 20:59N 40°40' W 074°00'0 0.0
2017-Sep-11 20:29N 40°40' W 074°00'0 0.0
2017-Sep-11 19:59N 40°40' W 074°00'0 0.0
2017-Sep-11 19:29N 40°40' W 074°00'0 0.0
2017-Sep-11 18:59N 40°40' W 074°00'0 0.0
2017-Sep-11 18:29N 40°40' W 074°00'0 0.0
2017-Sep-11 17:59N 40°40' W 074°00'0 0.0
2017-Sep-11 17:29N 40°40' W 074°00'0 0.0
2017-Sep-11 16:59N 40°40' W 074°00'0 0.0
2017-Sep-11 16:29N 40°40' W 074°00'0 0.0
2017-Sep-11 15:59N 40°40' W 074°00'0 0.0
2017-Sep-11 15:29N 40°40' W 074°00'0 0.0
2017-Sep-11 14:59N 40°40' W 074°00'0 0.0
2017-Sep-11 14:28N 40°40' W 074°00'0 0.0
2017-Sep-11 13:58N 40°40' W 074°00'0 0.0
2017-Sep-11 13:25N 40°40' W 074°00'0 0.0
2017-Sep-11 12:58N 40°40' W 074°00'0 0.0
2017-Sep-11 12:28N 40°40' W 074°00'0 0.0
2017-Sep-11 11:58N 40°40' W 074°00'0 0.0
2017-Sep-11 11:28N 40°40' W 074°00'0 0.0
2017-Sep-11 10:58N 40°40' W 074°00'0 0.0
2017-Sep-11 10:28N 40°40' W 074°00'0 0.0
2017-Sep-11 09:58N 40°40' W 074°00'0 0.0
2017-Sep-11 09:28N 40°40' W 074°00'0 0.0
2017-Sep-11 08:58N 40°40' W 074°00'0 0.0
2017-Sep-11 08:28N 40°40' W 074°00'0 0.0
2017-Sep-11 07:58N 40°40' W 074°00'0 0.0
2017-Sep-11 07:28N 40°40' W 074°00'0 0.0
2017-Sep-11 06:58N 40°40' W 074°00'0 0.0
2017-Sep-11 06:28N 40°40' W 074°00'0 0.0
2017-Sep-11 05:58N 40°40' W 074°00'0 0.0
2017-Sep-11 05:28N 40°40' W 074°00'0 0.0
2017-Sep-11 04:58N 40°40' W 074°00'0 0.0
2017-Sep-11 04:28N 40°40' W 074°00'0 0.0
2017-Sep-11 03:58N 40°40' W 074°00'0 0.0
2017-Sep-11 03:28N 40°40' W 074°00'0 0.0
2017-Sep-11 02:58N 40°40' W 074°00'0 0.0
2017-Sep-11 02:28N 40°40' W 074°00'0 0.0
2017-Sep-11 01:58N 40°40' W 074°00'0 0.4
2017-Sep-11 01:27N 40°40' W 074°00'0 0.3
2017-Sep-11 00:56N 40°40' W 074°00'0 0.0
2017-Sep-11 00:29N 40°40' W 074°00'0 0.0
2017-Sep-10 23:56N 40°40' W 074°00'0 0.6
2017-Sep-10 23:30N 40°40' W 074°00'0 0.0
2017-Sep-10 23:00N 40°40' W 074°00'0 0.0
2017-Sep-10 22:30N 40°40' W 074°00'0 0.0
2017-Sep-10 22:00N 40°40' W 074°00'0 0.0
2017-Sep-10 21:21N 40°40' W 074°00'0 0.0
2017-Sep-10 21:00N 40°40' W 074°00'0 0.0
2017-Sep-10 20:27N 40°40' W 074°00'0 0.0
2017-Sep-10 20:00N 40°40' W 074°00'0 0.0
2017-Sep-10 19:30N 40°40' W 074°00'0 0.0
2017-Sep-10 19:00N 40°40' W 074°00'1 2.5
2017-Sep-10 18:31N 40°41' W 074°02'4 8.6
2017-Sep-10 18:01N 40°45' W 074°01'2 3.1
2017-Sep-10 17:30N 40°46' W 074°00'0 0.1
2017-Sep-10 16:59N 40°46' W 074°00'0 0.0
2017-Sep-10 16:29N 40°46' W 074°00'0 0.2
2017-Sep-10 15:58N 40°46' W 074°00'0 0.3
2017-Sep-10 15:30N 40°46' W 074°00'0 0.4
2017-Sep-10 14:58N 40°46' W 074°00'0 0.0
2017-Sep-10 14:00N 40°46' W 073°60'0 0.0
2017-Sep-10 13:30N 40°46' W 073°60'0 0.0
2017-Sep-10 12:57N 40°46' W 073°60'0 0.0
2017-Sep-10 12:27N 40°46' W 073°60'0 0.2
2017-Sep-10 11:54N 40°46' W 073°60'0 0.3
2017-Sep-10 11:30N 40°46' W 073°60'0 0.5
2017-Sep-10 11:00N 40°46' W 074°00'0 0.7
2017-Sep-10 10:30N 40°45' W 074°01'0 0.5
2017-Sep-10 10:00N 40°45' W 074°01'2 3.1
2017-Sep-10 09:30N 40°44' W 074°01'2 3.1
2017-Sep-10 09:00N 40°42' W 074°01'2 3.4
2017-Sep-10 08:30N 40°41' W 074°02'1 1.9
2017-Sep-10 07:58N 40°40' W 074°00'0 0.7
2017-Sep-10 07:27N 40°40' W 074°00'0 0.0
2017-Sep-10 07:00N 40°40' W 074°00'0 0.0
2017-Sep-10 06:30N 40°40' W 074°00'0 0.0
2017-Sep-10 06:00N 40°40' W 074°00'0 0.0
2017-Sep-10 05:30N 40°40' W 074°00'0 0.0
2017-Sep-10 05:00N 40°40' W 074°00'0 0.0
2017-Sep-10 04:30N 40°40' W 074°00'0 0.0
2017-Sep-10 03:57N 40°40' W 074°00'0 0.0
2017-Sep-10 03:30N 40°40' W 074°00'0 0.0
2017-Sep-10 03:00N 40°40' W 074°00'0 0.0
2017-Sep-10 02:30N 40°40' W 074°00'0 0.0
2017-Sep-10 02:00N 40°40' W 074°00'0 0.0
2017-Sep-10 01:30N 40°40' W 074°00'0 0.0
2017-Sep-10 01:00N 40°40' W 074°00'0 0.0
2017-Sep-10 00:30N 40°40' W 074°00'0 0.0
2017-Sep-10 00:00N 40°40' W 074°00'0 0.0
2017-Sep-09 23:30N 40°40' W 074°00'0 0.0
2017-Sep-09 23:00N 40°40' W 074°00'0 0.0
2017-Sep-09 22:30N 40°40' W 074°00'  
Track history (hours):
 
Tides and Currents Weather Stations Pressure Air Temp Water Temp Dewpoint Dewpoint Depression Visibility Wind Speed Wind Dir Waves Ship Positions

Emerald Coast

Owner: Dann Marine Towing, LC, Chesapeake City, MD. More information available from US FCC via Universal Licensing System and Coast Guard Vessel Documentation Center.

Last reported at 2017-Sep-19 22:30 UTC. Time now 2017-Sep-19 22:27 UTC.
Position N 40°39' W 074°09'.

; draft 3 m.

Type: Tug. MMSI: 367097920.

Date/timePositionNaut miles runAvg speedWind from/ knotsBaromVisibWave heightAir tempDewpointWater temp
2017-Sep-19 22:30N 40°39' W 074°09'2 3.8
2017-Sep-19 22:00N 40°39' W 074°06'2 4.4
2017-Sep-19 21:31N 40°39' W 074°03'2 4.5
2017-Sep-19 21:00N 40°40' W 074°01'0 0.5
2017-Sep-19 20:29N 40°40' W 074°00'0 0.0
2017-Sep-19 19:59N 40°40' W 074°00'1 1.7
2017-Sep-19 19:30N 40°40' W 074°01'4 7.3
2017-Sep-19 19:01N 40°39' W 074°06'0 0.3
2017-Sep-19 18:28N 40°39' W 074°06'1 2.4
2017-Sep-19 18:00N 40°39' W 074°04'4 6.9
2017-Sep-19 17:30N 40°40' W 074°00'0 0.0
2017-Sep-19 17:00N 40°40' W 074°00'0 0.0
2017-Sep-19 16:30N 40°40' W 074°00'0 0.0
2017-Sep-19 16:00N 40°40' W 074°00'0 0.0
2017-Sep-19 15:30N 40°40' W 074°00'0 0.0
2017-Sep-19 14:57N 40°40' W 074°00'0 0.0
2017-Sep-19 14:30N 40°40' W 074°00'0 0.0
2017-Sep-19 13:57N 40°40' W 074°00'0 0.0
2017-Sep-19 13:30N 40°40' W 074°00'0 0.0
2017-Sep-19 13:00N 40°40' W 074°00'0 0.0
2017-Sep-19 12:30N 40°40' W 074°00'0 0.0
2017-Sep-19 12:00N 40°40' W 074°00'0 0.0
2017-Sep-19 11:30N 40°40' W 074°00'0 0.0
2017-Sep-19 11:00N 40°40' W 074°00'0 0.0
2017-Sep-19 10:30N 40°40' W 074°00'0 0.6
2017-Sep-19 09:59N 40°40' W 074°00'1 1.8
2017-Sep-19 09:30N 40°40' W 074°01'1 2.3
2017-Sep-19 09:00N 40°39' W 074°02'4 7.2
2017-Sep-19 08:30N 40°39' W 074°07'3 5.3
2017-Sep-19 08:00N 40°41' W 074°09'1 1.0
2017-Sep-19 07:23N 40°41' W 074°10'0 0.0
2017-Sep-19 06:59N 40°41' W 074°10'0 0.0
2017-Sep-19 06:29N 40°41' W 074°10'0 0.0
2017-Sep-19 05:59N 40°41' W 074°10'0 0.2
2017-Sep-19 05:30N 40°41' W 074°09'3 5.8
2017-Sep-19 05:01N 40°39' W 074°08'1 2.7
2017-Sep-19 04:30N 40°39' W 074°06'0 0.0
2017-Sep-19 04:00N 40°39' W 074°06'1 1.4
2017-Sep-19 03:31N 40°39' W 074°05'2 0.3
2017-Sep-18 21:10N 40°39' W 074°07'210.2
2017-Sep-18 21:00N 40°39' W 074°05'1 1.0
2017-Sep-18 20:31N 40°39' W 074°06'2 4.7
2017-Sep-18 20:01N 40°39' W 074°09'3 5.4
2017-Sep-18 19:31N 40°38' W 074°12'0 0.2
2017-Sep-18 19:00N 40°38' W 074°12'0 0.0
2017-Sep-18 18:24N 40°38' W 074°12'0 0.0
2017-Sep-18 17:09N 40°38' W 074°12'0 0.0
2017-Sep-18 16:54N 40°38' W 074°12'2 5.4
2017-Sep-18 16:30N 40°39' W 074°09'2 1.2
2017-Sep-18 15:02N 40°39' W 074°07'0 5.8
2017-Sep-18 15:00N 40°39' W 074°07'2 3.4
2017-Sep-18 14:30N 40°39' W 074°05'2 3.6
2017-Sep-18 13:58N 40°40' W 074°03'1 2.6
2017-Sep-18 13:30N 40°40' W 074°01'1 2.1
2017-Sep-18 12:59N 40°40' W 074°00'0 0.0
2017-Sep-18 12:29N 40°40' W 074°00'0 0.0
2017-Sep-18 11:59N 40°40' W 074°00'0 0.0
2017-Sep-18 11:29N 40°40' W 074°00'0 0.0
2017-Sep-18 10:59N 40°40' W 074°00'0 0.0
2017-Sep-18 10:29N 40°40' W 074°00'0 0.0
2017-Sep-18 09:59N 40°40' W 074°00'0 0.0
2017-Sep-18 09:29N 40°40' W 074°00'0 0.0
2017-Sep-18 08:59N 40°40' W 074°00'0 0.0
2017-Sep-18 08:29N 40°40' W 074°00'0 0.0
2017-Sep-18 07:59N 40°40' W 074°00'0 0.0
2017-Sep-18 07:29N 40°40' W 074°00'0 0.0
2017-Sep-18 06:59N 40°40' W 074°00'0 0.0
2017-Sep-18 06:29N 40°40' W 074°00'0 0.0
2017-Sep-18 05:59N 40°40' W 074°00'0 0.0
2017-Sep-18 05:29N 40°40' W 074°00'0 0.0
2017-Sep-18 04:59N 40°40' W 074°00'0 0.0
2017-Sep-18 04:29N 40°40' W 074°00'0 0.0
2017-Sep-18 03:59N 40°40' W 074°00'0 0.0
2017-Sep-18 03:29N 40°40' W 074°00'0 0.0
2017-Sep-18 02:59N 40°40' W 074°00'0 0.0
2017-Sep-18 02:29N 40°40' W 074°00'0 0.0
2017-Sep-18 01:59N 40°40' W 074°00'0 0.0
2017-Sep-18 01:29N 40°40' W 074°00'0 0.0
2017-Sep-18 00:59N 40°40' W 074°00'0 0.0
2017-Sep-18 00:29N 40°40' W 074°00'0 0.0
2017-Sep-17 23:59N 40°40' W 074°00'0 0.0
2017-Sep-17 23:29N 40°40' W 074°00'0 0.0
2017-Sep-17 22:59N 40°40' W 074°00'0 0.0
2017-Sep-17 22:29N 40°40' W 074°00'0 0.0
2017-Sep-17 21:59N 40°40' W 074°00'0 0.0
2017-Sep-17 21:29N 40°40' W 074°00'0 0.0
2017-Sep-17 20:59N 40°40' W 074°00'0 0.0
2017-Sep-17 20:29N 40°40' W 074°00'0 0.0
2017-Sep-17 19:59N 40°40' W 074°00'0 0.0
2017-Sep-17 19:29N 40°40' W 074°00'0 0.0
2017-Sep-17 18:59N 40°40' W 074°00'0 0.0
2017-Sep-17 18:29N 40°40' W 074°00'0 0.0
2017-Sep-17 17:59N 40°40' W 074°00'0 0.0
2017-Sep-17 17:29N 40°40' W 074°00'0 0.0
2017-Sep-17 16:59N 40°40' W 074°00'0 0.0
2017-Sep-17 16:29N 40°40' W 074°00'0 0.0
2017-Sep-17 15:59N 40°40' W 074°00'0 0.0
2017-Sep-17 15:26N 40°40' W 074°00'0 0.0
2017-Sep-17 14:59N 40°40' W 074°00'0 0.0
2017-Sep-17 14:29N 40°40' W 074°00'0 0.0
2017-Sep-17 13:59N 40°40' W 074°00'0 0.0
2017-Sep-17 13:29N 40°40' W 074°00'0 0.0
2017-Sep-17 12:59N 40°40' W 074°00'0 0.0
2017-Sep-17 12:29N 40°40' W 074°00'0 0.0
2017-Sep-17 11:59N 40°40' W 074°00'0 0.0
2017-Sep-17 11:29N 40°40' W 074°00'0 0.0
2017-Sep-17 10:59N 40°40' W 074°00'0 0.0
2017-Sep-17 10:29N 40°40' W 074°00'0 0.0
2017-Sep-17 09:59N 40°40' W 074°00'0 0.0
2017-Sep-17 09:29N 40°40' W 074°00'0 0.0
2017-Sep-17 08:59N 40°40' W 074°00'0 0.0
2017-Sep-17 08:29N 40°40' W 074°00'0 0.0
2017-Sep-17 07:59N 40°40' W 074°00'0 0.0
2017-Sep-17 07:29N 40°40' W 074°00'0 0.0
2017-Sep-17 06:59N 40°40' W 074°00'0 0.0
2017-Sep-17 06:29N 40°40' W 074°00'0 0.0
2017-Sep-17 05:59N 40°40' W 074°00'0 0.0
2017-Sep-17 05:29N 40°40' W 074°00'3 6.4
2017-Sep-17 05:00N 40°39' W 074°04'2 4.2
2017-Sep-17 04:30N 40°39' W 074°07'0 0.9
2017-Sep-17 03:59N 40°39' W 074°07'0 0.0
2017-Sep-17 03:26N 40°39' W 074°07'0 0.0
2017-Sep-17 02:56N 40°39' W 074°07'0 0.0
2017-Sep-17 02:29N 40°39' W 074°07'0 0.0
2017-Sep-17 01:20N 40°39' W 074°07'0 0.2
2017-Sep-16 23:56N 40°39' W 074°07'4 8.5
2017-Sep-16 23:30N 40°38' W 074°12'5 0.7
2017-Sep-16 15:38N 40°33' W 074°15'4 1.7
2017-Sep-16 13:35N 40°36' W 074°12'1 6.7
2017-Sep-16 13:30N 40°36' W 074°12'3 6.2
2017-Sep-16 13:00N 40°39' W 074°10'3 6.3
2017-Sep-16 12:30N 40°39' W 074°06'1 1.5
2017-Sep-16 12:00N 40°39' W 074°05'3 5.3
2017-Sep-16 11:30N 40°41' W 074°02'1 2.9
2017-Sep-16 11:00N 40°41' W 074°00'0 0.0
2017-Sep-16 10:30N 40°41' W 074°00'1 2.5
2017-Sep-16 10:00N 40°41' W 074°02'4 6.7
2017-Sep-16 09:28N 40°39' W 074°06'0 0.1
2017-Sep-16 09:00N 40°39' W 074°06'1 1.3
2017-Sep-16 08:07N 40°38' W 074°07'0 0.0
2017-Sep-16 07:58N 40°38' W 074°07'0 0.0
2017-Sep-16 04:41N 40°38' W 074°07'2 8.4
2017-Sep-16 04:30N 40°39' W 074°05'2 4.3
2017-Sep-16 04:00N 40°40' W 074°03'2 4.5
2017-Sep-16 03:28N 40°38' W 074°04'0 0.0
2017-Sep-16 02:58N 40°38' W 074°04'0 0.0
2017-Sep-16 02:25N 40°38' W 074°04'0 0.0
2017-Sep-16 01:58N 40°38' W 074°04'0 0.0
2017-Sep-16 01:28N 40°38' W 074°04'1 1.1
2017-Sep-16 01:00N 40°38' W 074°04'2 3.3
2017-Sep-16 00:30N 40°40' W 074°04'0 0.0
2017-Sep-16 00:00N 40°40' W 074°04'0 0.0
2017-Sep-15 23:30N 40°40' W 074°04'0 0.0
2017-Sep-15 23:00N 40°40' W 074°04'0 0.0
2017-Sep-15 22:30N 40°40' W 074°04'0 0.0
2017-Sep-15 22:00N 40°40' W 074°04'1 3.0
2017-Sep-15 21:30N 40°39' W 074°03'3 5.1
2017-Sep-15 21:00N 40°39' W 074°06'4 8.2
2017-Sep-15 20:29N 40°38' W 074°12'0 0.0
2017-Sep-15 19:59N 40°38' W 074°12'0 0.0
2017-Sep-15 19:29N 40°38' W 074°12'0 0.0
2017-Sep-15 18:56N 40°38' W 074°12'1 2.6
2017-Sep-15 18:30N 40°39' W 074°10'5 9.5
2017-Sep-15 18:00N 40°39' W 074°04'3 5.8
2017-Sep-15 17:30N 40°40' W 074°00'1 2.0
2017-Sep-15 16:58N 40°41' W 074°01'1 2.4
2017-Sep-15 16:30N 40°40' W 074°00'0 0.0
2017-Sep-15 16:00N 40°40' W 074°00'0 0.0
2017-Sep-15 15:30N 40°40' W 074°00'0 0.2
2017-Sep-15 14:59N 40°40' W 074°00'0 0.0
2017-Sep-15 14:29N 40°40' W 074°00'0 0.0
2017-Sep-15 13:59N 40°40' W 074°00'0 0.2
2017-Sep-15 13:28N 40°40' W 074°00'0 0.0
2017-Sep-15 12:55N 40°40' W 074°00'0 0.0
2017-Sep-15 12:28N 40°40' W 074°00'0 0.0
2017-Sep-15 11:58N 40°40' W 074°00'0 0.0
2017-Sep-15 11:28N 40°40' W 074°00'1 2.4
2017-Sep-15 11:01N 40°41' W 074°01'0 0.3
2017-Sep-15 10:30N 40°41' W 074°01'2 4.2
2017-Sep-15 10:00N 40°39' W 074°02'1 1.5
2017-Sep-15 09:28N 40°38' W 074°03'0 0.4
2017-Sep-15 08:58N 40°39' W 074°03'1 2.6
2017-Sep-15 08:30N 40°39' W 074°04'2 3.5
2017-Sep-15 08:00N 40°39' W 074°06'1 1.4
2017-Sep-15 07:29N 40°38' W 074°07'0 0.0
2017-Sep-15 06:44N 40°38' W 074°07'0 0.0
2017-Sep-15 06:20N 40°38' W 074°07'0 0.0
2017-Sep-15 05:53N 40°38' W 074°07'0 0.0
2017-Sep-15 04:53N 40°38' W 074°07'0 0.0
2017-Sep-15 04:29N 40°38' W 074°07'0 0.0
2017-Sep-15 03:56N 40°38' W 074°07'0 0.0
2017-Sep-15 03:26N 40°38' W 074°07'1 1.6
2017-Sep-15 02:59N 40°39' W 074°06'0 0.8
2017-Sep-15 02:25N 40°39' W 074°06'2 4.6
2017-Sep-15 02:01N 40°40' W 074°04'3 6.1
2017-Sep-15 01:30N 40°41' W 074°00'1 2.9
2017-Sep-15 01:00N 40°40' W 074°01'1 1.7
2017-Sep-15 00:28N 40°40' W 074°00'0 0.0
2017-Sep-14 23:58N 40°40' W 074°00'0 0.0
2017-Sep-14 23:28N 40°40' W 074°00'0 0.0
2017-Sep-14 22:58N 40°40' W 074°00'0 0.0
2017-Sep-14 22:28N 40°40' W 074°00'0 0.0
2017-Sep-14 21:58N 40°40' W 074°00'0 0.0
2017-Sep-14 21:28N 40°40' W 074°00'0 0.0
2017-Sep-14 20:58N 40°40' W 074°00'0 0.0
2017-Sep-14 20:28N 40°40' W 074°00'0 0.0
2017-Sep-14 19:58N 40°40' W 074°00'0 0.0
2017-Sep-14 19:28N 40°40' W 074°00'0 0.0
2017-Sep-14 18:58N 40°40' W 074°00'0 0.0
2017-Sep-14 18:28N 40°40' W 074°00'0 0.0
2017-Sep-14 17:58N 40°40' W 074°00'0 0.0
2017-Sep-14 17:25N 40°40' W 074°00'0 0.0
2017-Sep-14 16:58N 40°40' W 074°00'0 0.0
2017-Sep-14 16:28N 40°40' W 074°00'0 0.0
2017-Sep-14 15:58N 40°40' W 074°00'0 0.0
2017-Sep-14 15:28N 40°40' W 074°00'0 0.0
2017-Sep-14 14:55N 40°40' W 074°00'0 0.0
2017-Sep-14 14:28N 40°40' W 074°00'0 0.0
2017-Sep-14 13:58N 40°40' W 074°00'1 1.1
2017-Sep-14 13:30N 40°40' W 074°01'4 8.2
2017-Sep-14 13:00N 40°39' W 074°06'3 5.8
2017-Sep-14 12:30N 40°41' W 074°09'1 1.4
2017-Sep-14 12:00N 40°41' W 074°09'1 1.3
2017-Sep-14 11:30N 40°41' W 074°09'2 3.3
2017-Sep-14 11:00N 40°39' W 074°09'2 3.6
2017-Sep-14 10:30N 40°39' W 074°07'2 5.0
2017-Sep-14 10:00N 40°40' W 074°03'0 0.4
2017-Sep-14 09:31N 40°40' W 074°04'3 3.1
2017-Sep-14 08:34N 40°38' W 074°07'0 0.0
2017-Sep-14 08:22N 40°38' W 074°07'0 0.0
2017-Sep-14 07:55N 40°38' W 074°07'0 0.0
2017-Sep-14 06:46N 40°38' W 074°07'0 0.0
2017-Sep-14 06:28N 40°38' W 074°07'0 0.0
2017-Sep-14 04:40N 40°38' W 074°07'0 0.0
2017-Sep-14 04:28N 40°38' W 074°07'0 0.0
2017-Sep-14 03:58N 40°38' W 074°07'0 0.0
2017-Sep-14 03:22N 40°38' W 074°07'0 0.0
2017-Sep-14 02:58N 40°38' W 074°07'0 0.0
2017-Sep-14 02:22N 40°38' W 074°07'0 0.0
2017-Sep-14 01:58N 40°38' W 074°07'0 0.0
2017-Sep-14 01:28N 40°38' W 074°07'0 0.0
2017-Sep-14 00:52N 40°38' W 074°07'0 0.0
2017-Sep-14 00:28N 40°38' W 074°07'1 3.0
2017-Sep-13 23:58N 40°39' W 074°05'1 2.4
2017-Sep-13 23:28N 40°40' W 074°04'0 0.0
2017-Sep-13 22:58N 40°40' W 074°04'1 2.4
2017-Sep-13 22:30N 40°40' W 074°03'3 5.3
2017-Sep-13 21:59N 40°39' W 074°06'1 1.7
2017-Sep-13 21:28N 40°39' W 074°07'0 0.0
2017-Sep-13 20:34N 40°39' W 074°07'0 0.0
2017-Sep-13 20:19N 40°38' W 074°07'0 0.0
2017-Sep-13 19:46N 40°39' W 074°07'0 0.0
2017-Sep-13 19:28N 40°39' W 074°07'0 0.0
2017-Sep-13 18:16N 40°38' W 074°07'0 0.0
2017-Sep-13 17:52N 40°39' W 074°07'1 1.5
2017-Sep-13 17:30N 40°39' W 074°07'1 1.8
2017-Sep-13 17:00N 40°39' W 074°08'1 2.6
2017-Sep-13 16:30N 40°40' W 074°09'1 2.2
2017-Sep-13 15:58N 40°41' W 074°09'1 1.5
2017-Sep-13 15:30N 40°40' W 074°08'2 3.5
2017-Sep-13 15:00N 40°39' W 074°07'3 6.2
2017-Sep-13 14:30N 40°39' W 074°03'2 4.5
2017-Sep-13 13:59N 40°40' W 074°00'1 1.4
2017-Sep-13 13:30N 40°40' W 074°01'3 6.7
2017-Sep-13 13:00N 40°39' W 074°06'3 5.1
2017-Sep-13 12:29N 40°40' W 074°09'0 0.5
2017-Sep-13 12:00N 40°40' W 074°09'0 0.9
2017-Sep-13 11:30N 40°40' W 074°08'0 0.6
2017-Sep-13 11:00N 40°40' W 074°08'1 1.9
2017-Sep-13 10:30N 40°41' W 074°09'0 0.3
2017-Sep-13 10:00N 40°41' W 074°09'0 0.0
2017-Sep-13 09:21N 40°41' W 074°09'0 0.0
2017-Sep-13 09:00N 40°41' W 074°09'0 0.0
2017-Sep-13 08:27N 40°41' W 074°09'0 0.0
2017-Sep-13 08:00N 40°41' W 074°09'0 0.0
2017-Sep-13 07:30N 40°41' W 074°09'0 0.0
2017-Sep-13 07:00N 40°41' W 074°09'0 0.0
2017-Sep-13 06:30N 40°41' W 074°09'0 0.0
2017-Sep-13 06:00N 40°41' W 074°09'0 0.0
2017-Sep-13 05:30N 40°41' W 074°09'0 0.0
2017-Sep-13 05:00N 40°41' W 074°09'0 0.0
2017-Sep-13 04:30N 40°41' W 074°09'0 0.0
2017-Sep-13 04:00N 40°41' W 074°09'0 0.0
2017-Sep-13 03:30N 40°41' W 074°09'0 0.0
2017-Sep-13 03:00N 40°41' W 074°09'0 0.0
2017-Sep-13 02:30N 40°41' W 074°09'0 0.1
2017-Sep-13 02:00N 40°41' W 074°09'2 4.1
2017-Sep-13 01:30N 40°39' W 074°09'2 3.3
2017-Sep-13 00:58N 40°39' W 074°06'1 0.4
2017-Sep-12 23:16N 40°38' W 074°07'0 0.0
2017-Sep-12 22:58N 40°38' W 074°07'0 0.0
2017-Sep-12 22:28N 40°38' W 074°07'0 0.0
2017-Sep-12 21:55N 40°38' W 074°07'1 3.1
2017-Sep-12 21:30N 40°39' W 074°06'1 2.9
2017-Sep-12 20:59N 40°40' W 074°05'1 1.1
2017-Sep-12 20:29N 40°40' W 074°04'1 2.2
2017-Sep-12 20:00N 40°39' W 074°05'1 1.4
2017-Sep-12 19:19N 40°39' W 074°06'2 6.7
2017-Sep-12 19:00N 40°39' W 074°03'3 5.3
2017-Sep-12 18:30N 40°40' W 074°00'0 0.0
2017-Sep-12 18:00N 40°40' W 074°00'0 0.3
2017-Sep-12 17:28N 40°40' W 074°00'0 0.0
2017-Sep-12 16:58N 40°40' W 074°00'0 0.0
2017-Sep-12 16:28N 40°40' W 074°00'0 0.0
2017-Sep-12 15:58N 40°40' W 074°00'0 0.0
2017-Sep-12 15:28N 40°40' W 074°00'0 0.3
2017-Sep-12 14:59N 40°40' W 074°00'0 0.0
2017-Sep-12 14:29N 40°40' W 074°00'0 0.0
2017-Sep-12 13:59N 40°40' W 074°00'0 0.0
2017-Sep-12 13:29N 40°40' W 074°00'0 0.0
2017-Sep-12 12:59N 40°40' W 074°00'0 0.0
2017-Sep-12 12:29N 40°40' W 074°00'0 0.0
2017-Sep-12 11:59N 40°40' W 074°00'0 0.0
2017-Sep-12 11:29N 40°40' W 074°00'0 0.0
2017-Sep-12 10:59N 40°40' W 074°00'0 0.0
2017-Sep-12 10:29N 40°40' W 074°00'0 0.0
2017-Sep-12 09:59N 40°40' W 074°00'0 0.0
2017-Sep-12 09:29N 40°40' W 074°00'0 0.0
2017-Sep-12 08:59N 40°40' W 074°00'0 0.0
2017-Sep-12 08:29N 40°40' W 074°00'0 0.0
2017-Sep-12 07:59N 40°40' W 074°00'0 0.0
2017-Sep-12 07:29N 40°40' W 074°00'0 0.0
2017-Sep-12 06:59N 40°40' W 074°00'0 0.0
2017-Sep-12 06:29N 40°40' W 074°00'0 0.0
2017-Sep-12 05:59N 40°40' W 074°00'0 0.0
2017-Sep-12 05:29N 40°40' W 074°00'0 0.0
2017-Sep-12 04:59N 40°40' W 074°00'0 0.0
2017-Sep-12 04:29N 40°40' W 074°00'0 0.0
2017-Sep-12 03:59N 40°40' W 074°00'0 0.0
2017-Sep-12 03:29N 40°40' W 074°00'0 0.0
2017-Sep-12 02:59N 40°40' W 074°00'0 0.0
2017-Sep-12 02:26N 40°40' W 074°00'0 0.0
2017-Sep-12 01:59N 40°40' W 074°00'0 0.0
2017-Sep-12 01:29N 40°40' W 074°00'0 0.0
2017-Sep-12 00:59N 40°40' W 074°00'0 0.0
2017-Sep-12 00:29N 40°40' W 074°00'0 0.0
2017-Sep-11 23:59N 40°40' W 074°00'0 0.0
2017-Sep-11 23:29N 40°40' W 074°00'0 0.0
2017-Sep-11 22:59N 40°40' W 074°00'0 0.0
2017-Sep-11 22:29N 40°40' W 074°00'0 0.0
2017-Sep-11 21:59N 40°40' W 074°00'0 0.0
2017-Sep-11 21:29N 40°40' W 074°00'0 0.0
2017-Sep-11 20:59N 40°40' W 074°00'0 0.0
2017-Sep-11 20:29N 40°40' W 074°00'0 0.0
2017-Sep-11 19:59N 40°40' W 074°00'0 0.0
2017-Sep-11 19:29N 40°40' W 074°00'0 0.0
2017-Sep-11 18:59N 40°40' W 074°00'0 0.0
2017-Sep-11 18:29N 40°40' W 074°00'0 0.0
2017-Sep-11 17:59N 40°40' W 074°00'0 0.0
2017-Sep-11 17:29N 40°40' W 074°00'0 0.0
2017-Sep-11 16:59N 40°40' W 074°00'0 0.0
2017-Sep-11 16:29N 40°40' W 074°00'0 0.0
2017-Sep-11 15:59N 40°40' W 074°00'0 0.0
2017-Sep-11 15:29N 40°40' W 074°00'0 0.0
2017-Sep-11 14:59N 40°40' W 074°00'0 0.0
2017-Sep-11 14:28N 40°40' W 074°00'0 0.0
2017-Sep-11 13:58N 40°40' W 074°00'0 0.0
2017-Sep-11 13:25N 40°40' W 074°00'0 0.0
2017-Sep-11 12:58N 40°40' W 074°00'0 0.0
2017-Sep-11 12:28N 40°40' W 074°00'0 0.0
2017-Sep-11 11:58N 40°40' W 074°00'0 0.0
2017-Sep-11 11:28N 40°40' W 074°00'0 0.0
2017-Sep-11 10:58N 40°40' W 074°00'0 0.0
2017-Sep-11 10:28N 40°40' W 074°00'0 0.0
2017-Sep-11 09:58N 40°40' W 074°00'0 0.0
2017-Sep-11 09:28N 40°40' W 074°00'0 0.0
2017-Sep-11 08:58N 40°40' W 074°00'0 0.0
2017-Sep-11 08:28N 40°40' W 074°00'0 0.0
2017-Sep-11 07:58N 40°40' W 074°00'0 0.0
2017-Sep-11 07:28N 40°40' W 074°00'0 0.0
2017-Sep-11 06:58N 40°40' W 074°00'0 0.0
2017-Sep-11 06:28N 40°40' W 074°00'0 0.0
2017-Sep-11 05:58N 40°40' W 074°00'0 0.0
2017-Sep-11 05:28N 40°40' W 074°00'0 0.0
2017-Sep-11 04:58N 40°40' W 074°00'0 0.0
2017-Sep-11 04:28N 40°40' W 074°00'0 0.0
2017-Sep-11 03:58N 40°40' W 074°00'0 0.0
2017-Sep-11 03:28N 40°40' W 074°00'0 0.0
2017-Sep-11 02:58N 40°40' W 074°00'0 0.0
2017-Sep-11 02:28N 40°40' W 074°00'0 0.0
2017-Sep-11 01:58N 40°40' W 074°00'0 0.4
2017-Sep-11 01:27N 40°40' W 074°00'0 0.3
2017-Sep-11 00:56N 40°40' W 074°00'0 0.0
2017-Sep-11 00:29N 40°40' W 074°00'0 0.0
2017-Sep-10 23:56N 40°40' W 074°00'0 0.6
2017-Sep-10 23:30N 40°40' W 074°00'0 0.0
2017-Sep-10 23:00N 40°40' W 074°00'0 0.0
2017-Sep-10 22:30N 40°40' W 074°00'0 0.0
2017-Sep-10 22:00N 40°40' W 074°00'0 0.0
2017-Sep-10 21:21N 40°40' W 074°00'0 0.0
2017-Sep-10 21:00N 40°40' W 074°00'0 0.0
2017-Sep-10 20:27N 40°40' W 074°00'0 0.0
2017-Sep-10 20:00N 40°40' W 074°00'0 0.0
2017-Sep-10 19:30N 40°40' W 074°00'0 0.0
2017-Sep-10 19:00N 40°40' W 074°00'1 2.5
2017-Sep-10 18:31N 40°41' W 074°02'4 8.6
2017-Sep-10 18:01N 40°45' W 074°01'2 3.1
2017-Sep-10 17:30N 40°46' W 074°00'0 0.1
2017-Sep-10 16:59N 40°46' W 074°00'0 0.0
2017-Sep-10 16:29N 40°46' W 074°00'0 0.2
2017-Sep-10 15:58N 40°46' W 074°00'0 0.3
2017-Sep-10 15:30N 40°46' W 074°00'0 0.4
2017-Sep-10 14:58N 40°46' W 074°00'0 0.0
2017-Sep-10 14:00N 40°46' W 073°60'0 0.0
2017-Sep-10 13:30N 40°46' W 073°60'0 0.0
2017-Sep-10 12:57N 40°46' W 073°60'0 0.0
2017-Sep-10 12:27N 40°46' W 073°60'0 0.2
2017-Sep-10 11:54N 40°46' W 073°60'0 0.3
2017-Sep-10 11:30N 40°46' W 073°60'0 0.5
2017-Sep-10 11:00N 40°46' W 074°00'0 0.7
2017-Sep-10 10:30N 40°45' W 074°01'0 0.5
2017-Sep-10 10:00N 40°45' W 074°01'2 3.1
2017-Sep-10 09:30N 40°44' W 074°01'2 3.1
2017-Sep-10 09:00N 40°42' W 074°01'2 3.4
2017-Sep-10 08:30N 40°41' W 074°02'1 1.9
2017-Sep-10 07:58N 40°40' W 074°00'0 0.7
2017-Sep-10 07:27N 40°40' W 074°00'0 0.0
2017-Sep-10 07:00N 40°40' W 074°00'0 0.0
2017-Sep-10 06:30N 40°40' W 074°00'0 0.0
2017-Sep-10 06:00N 40°40' W 074°00'0 0.0
2017-Sep-10 05:30N 40°40' W 074°00'0 0.0
2017-Sep-10 05:00N 40°40' W 074°00'0 0.0
2017-Sep-10 04:30N 40°40' W 074°00'0 0.0
2017-Sep-10 03:57N 40°40' W 074°00'0 0.0
2017-Sep-10 03:30N 40°40' W 074°00'0 0.0
2017-Sep-10 03:00N 40°40' W 074°00'0 0.0
2017-Sep-10 02:30N 40°40' W 074°00'0 0.0
2017-Sep-10 02:00N 40°40' W 074°00'0 0.0
2017-Sep-10 01:30N 40°40' W 074°00'0 0.0
2017-Sep-10 01:00N 40°40' W 074°00'0 0.0
2017-Sep-10 00:30N 40°40' W 074°00'0 0.0
2017-Sep-10 00:00N 40°40' W 074°00'0 0.0
2017-Sep-09 23:30N 40°40' W 074°00'0 0.0
2017-Sep-09 23:00N 40°40' W 074°00'0 0.0
2017-Sep-09 22:30N 40°40' W 074°00'  

Dump ship's entire track history